sensor_id;sensor_type;location;lat;lon;timestamp;P1;durP1;ratioP1;P2;durP2;ratioP2
62037;SDS011;47991;42.974;12.082;2023-05-07T00:01:41;4.60;;;2.20;;
62037;SDS011;47991;42.974;12.082;2023-05-07T00:04:09;3.30;;;2.10;;
62037;SDS011;47991;42.974;12.082;2023-05-07T00:06:49;4.20;;;2.00;;
62037;SDS011;47991;42.974;12.082;2023-05-07T00:09:17;3.80;;;2.00;;
62037;SDS011;47991;42.974;12.082;2023-05-07T00:11:44;3.70;;;1.90;;
62037;SDS011;47991;42.974;12.082;2023-05-07T00:14:25;3.30;;;2.00;;
62037;SDS011;47991;42.974;12.082;2023-05-07T00:16:51;4.70;;;2.20;;
62037;SDS011;47991;42.974;12.082;2023-05-07T00:19:18;4.30;;;2.00;;
62037;SDS011;47991;42.974;12.082;2023-05-07T00:21:45;4.00;;;2.00;;
62037;SDS011;47991;42.974;12.082;2023-05-07T00:24:27;3.40;;;1.90;;
62037;SDS011;47991;42.974;12.082;2023-05-07T00:26:54;3.50;;;1.90;;
62037;SDS011;47991;42.974;12.082;2023-05-07T00:29:34;3.70;;;2.00;;
62037;SDS011;47991;42.974;12.082;2023-05-07T00:32:02;3.80;;;2.10;;
62037;SDS011;47991;42.974;12.082;2023-05-07T00:34:43;4.80;;;2.20;;
62037;SDS011;47991;42.974;12.082;2023-05-07T00:37:24;3.70;;;1.90;;
62037;SDS011;47991;42.974;12.082;2023-05-07T00:40:05;3.70;;;1.90;;
62037;SDS011;47991;42.974;12.082;2023-05-07T00:42:34;2.20;;;1.60;;
62037;SDS011;47991;42.974;12.082;2023-05-07T00:45:15;3.50;;;1.90;;
62037;SDS011;47991;42.974;12.082;2023-05-07T00:47:43;3.20;;;1.80;;
62037;SDS011;47991;42.974;12.082;2023-05-07T00:50:10;4.00;;;2.00;;
62037;SDS011;47991;42.974;12.082;2023-05-07T00:52:52;3.30;;;1.80;;
62037;SDS011;47991;42.974;12.082;2023-05-07T00:55:33;3.30;;;2.00;;
62037;SDS011;47991;42.974;12.082;2023-05-07T01:01:01;3.00;;;1.80;;
62037;SDS011;47991;42.974;12.082;2023-05-07T01:03:42;3.20;;;2.00;;
62037;SDS011;47991;42.974;12.082;2023-05-07T01:06:10;3.60;;;1.90;;
62037;SDS011;47991;42.974;12.082;2023-05-07T01:08:53;4.20;;;2.00;;
62037;SDS011;47991;42.974;12.082;2023-05-07T01:11:22;3.70;;;2.10;;
62037;SDS011;47991;42.974;12.082;2023-05-07T01:14:03;4.30;;;2.30;;
62037;SDS011;47991;42.974;12.082;2023-05-07T01:16:45;3.40;;;1.90;;
62037;SDS011;47991;42.974;12.082;2023-05-07T01:19:13;4.60;;;2.10;;
62037;SDS011;47991;42.974;12.082;2023-05-07T01:22:02;4.30;;;2.00;;
62037;SDS011;47991;42.974;12.082;2023-05-07T01:24:47;3.30;;;2.00;;
62037;SDS011;47991;42.974;12.082;2023-05-07T01:27:15;3.50;;;2.00;;
62037;SDS011;47991;42.974;12.082;2023-05-07T01:29:41;3.30;;;2.00;;
62037;SDS011;47991;42.974;12.082;2023-05-07T01:32:25;3.30;;;2.00;;
62037;SDS011;47991;42.974;12.082;2023-05-07T01:35:11;4.10;;;2.20;;
62037;SDS011;47991;42.974;12.082;2023-05-07T01:37:57;3.10;;;2.10;;
62037;SDS011;47991;42.974;12.082;2023-05-07T01:40:24;4.10;;;2.20;;
62037;SDS011;47991;42.974;12.082;2023-05-07T01:42:51;3.10;;;2.00;;
62037;SDS011;47991;42.974;12.082;2023-05-07T01:45:21;3.40;;;2.00;;
62037;SDS011;47991;42.974;12.082;2023-05-07T01:48:01;3.90;;;2.00;;
62037;SDS011;47991;42.974;12.082;2023-05-07T01:50:29;4.00;;;2.20;;
62037;SDS011;47991;42.974;12.082;2023-05-07T01:52:57;3.30;;;1.90;;
62037;SDS011;47991;42.974;12.082;2023-05-07T01:55:38;3.70;;;2.00;;
62037;SDS011;47991;42.974;12.082;2023-05-07T01:58:04;2.60;;;1.90;;
62037;SDS011;47991;42.974;12.082;2023-05-07T02:00:32;3.90;;;2.10;;
62037;SDS011;47991;42.974;12.082;2023-05-07T02:03:12;4.60;;;2.20;;
62037;SDS011;47991;42.974;12.082;2023-05-07T02:05:53;4.20;;;2.10;;
62037;SDS011;47991;42.974;12.082;2023-05-07T02:08:20;4.10;;;2.00;;
62037;SDS011;47991;42.974;12.082;2023-05-07T02:11:00;4.00;;;1.90;;
62037;SDS011;47991;42.974;12.082;2023-05-07T02:13:41;4.30;;;2.10;;
62037;SDS011;47991;42.974;12.082;2023-05-07T02:16:22;4.20;;;2.10;;
62037;SDS011;47991;42.974;12.082;2023-05-07T02:18:50;3.10;;;1.90;;
62037;SDS011;47991;42.974;12.082;2023-05-07T02:21:31;3.30;;;1.90;;
62037;SDS011;47991;42.974;12.082;2023-05-07T02:23:58;4.10;;;2.00;;
62037;SDS011;47991;42.974;12.082;2023-05-07T02:26:41;3.70;;;2.20;;
62037;SDS011;47991;42.974;12.082;2023-05-07T02:29:09;3.10;;;2.10;;
62037;SDS011;47991;42.974;12.082;2023-05-07T02:31:36;2.50;;;1.70;;
62037;SDS011;47991;42.974;12.082;2023-05-07T02:34:17;3.40;;;1.90;;
62037;SDS011;47991;42.974;12.082;2023-05-07T02:36:44;2.30;;;1.60;;
62037;SDS011;47991;42.974;12.082;2023-05-07T02:39:25;4.20;;;2.00;;
62037;SDS011;47991;42.974;12.082;2023-05-07T02:42:06;3.50;;;1.90;;
62037;SDS011;47991;42.974;12.082;2023-05-07T02:44:33;2.60;;;1.70;;
62037;SDS011;47991;42.974;12.082;2023-05-07T02:47:15;2.90;;;1.80;;
62037;SDS011;47991;42.974;12.082;2023-05-07T02:49:57;4.70;;;2.10;;
62037;SDS011;47991;42.974;12.082;2023-05-07T02:52:23;2.50;;;1.80;;
62037;SDS011;47991;42.974;12.082;2023-05-07T02:55:05;2.30;;;1.60;;
62037;SDS011;47991;42.974;12.082;2023-05-07T02:57:32;4.20;;;2.00;;
62037;SDS011;47991;42.974;12.082;2023-05-07T03:00:13;3.80;;;2.00;;
62037;SDS011;47991;42.974;12.082;2023-05-07T03:02:42;3.30;;;1.90;;
62037;SDS011;47991;42.974;12.082;2023-05-07T03:05:29;3.40;;;2.00;;
62037;SDS011;47991;42.974;12.082;2023-05-07T03:08:11;3.80;;;1.80;;
62037;SDS011;47991;42.974;12.082;2023-05-07T03:10:38;3.30;;;2.00;;
62037;SDS011;47991;42.974;12.082;2023-05-07T03:13:05;3.40;;;2.10;;
62037;SDS011;47991;42.974;12.082;2023-05-07T03:15:46;3.80;;;1.90;;
62037;SDS011;47991;42.974;12.082;2023-05-07T03:18:26;2.30;;;1.60;;
62037;SDS011;47991;42.974;12.082;2023-05-07T03:21:08;3.30;;;2.00;;
62037;SDS011;47991;42.974;12.082;2023-05-07T03:23:49;2.90;;;1.90;;
62037;SDS011;47991;42.974;12.082;2023-05-07T03:26:29;4.00;;;1.90;;
62037;SDS011;47991;42.974;12.082;2023-05-07T03:28:56;3.00;;;1.90;;
62037;SDS011;47991;42.974;12.082;2023-05-07T03:32:00;4.10;;;2.20;;
62037;SDS011;47991;42.974;12.082;2023-05-07T03:34:27;3.40;;;1.90;;
62037;SDS011;47991;42.974;12.082;2023-05-07T03:36:53;3.50;;;2.00;;
62037;SDS011;47991;42.974;12.082;2023-05-07T03:39:20;3.70;;;2.00;;
62037;SDS011;47991;42.974;12.082;2023-05-07T03:41:47;2.60;;;1.80;;
62037;SDS011;47991;42.974;12.082;2023-05-07T03:44:28;4.60;;;2.00;;
62037;SDS011;47991;42.974;12.082;2023-05-07T03:46:54;3.60;;;2.00;;
62037;SDS011;47991;42.974;12.082;2023-05-07T03:49:22;3.00;;;1.90;;
62037;SDS011;47991;42.974;12.082;2023-05-07T03:52:02;3.30;;;1.90;;
62037;SDS011;47991;42.974;12.082;2023-05-07T03:54:43;2.80;;;1.70;;
62037;SDS011;47991;42.974;12.082;2023-05-07T03:57:10;2.80;;;1.90;;
62037;SDS011;47991;42.974;12.082;2023-05-07T03:59:37;3.40;;;1.80;;
62037;SDS011;47991;42.974;12.082;2023-05-07T04:02:03;4.50;;;2.30;;
62037;SDS011;47991;42.974;12.082;2023-05-07T04:04:30;2.90;;;2.00;;
62037;SDS011;47991;42.974;12.082;2023-05-07T04:07:01;3.00;;;1.90;;
62037;SDS011;47991;42.974;12.082;2023-05-07T04:09:29;2.90;;;2.00;;
62037;SDS011;47991;42.974;12.082;2023-05-07T04:12:11;2.90;;;2.00;;
62037;SDS011;47991;42.974;12.082;2023-05-07T04:14:44;3.80;;;2.20;;
62037;SDS011;47991;42.974;12.082;2023-05-07T04:17:12;2.50;;;1.70;;
62037;SDS011;47991;42.974;12.082;2023-05-07T04:19:53;2.90;;;1.90;;
62037;SDS011;47991;42.974;12.082;2023-05-07T04:22:20;2.70;;;1.70;;
62037;SDS011;47991;42.974;12.082;2023-05-07T04:24:47;3.00;;;1.70;;
62037;SDS011;47991;42.974;12.082;2023-05-07T04:27:13;2.70;;;1.80;;
62037;SDS011;47991;42.974;12.082;2023-05-07T04:29:40;3.50;;;1.90;;
62037;SDS011;47991;42.974;12.082;2023-05-07T04:32:09;3.20;;;1.80;;
62037;SDS011;47991;42.974;12.082;2023-05-07T04:34:37;2.90;;;1.90;;
62037;SDS011;47991;42.974;12.082;2023-05-07T04:37:17;2.90;;;1.90;;
62037;SDS011;47991;42.974;12.082;2023-05-07T04:39:58;2.50;;;1.70;;
62037;SDS011;47991;42.974;12.082;2023-05-07T04:42:27;2.80;;;1.60;;
62037;SDS011;47991;42.974;12.082;2023-05-07T04:45:09;2.30;;;1.70;;
62037;SDS011;47991;42.974;12.082;2023-05-07T04:47:51;2.50;;;1.60;;
62037;SDS011;47991;42.974;12.082;2023-05-07T04:50:32;3.20;;;1.80;;
62037;SDS011;47991;42.974;12.082;2023-05-07T04:53:14;2.90;;;1.80;;
62037;SDS011;47991;42.974;12.082;2023-05-07T04:55:56;3.20;;;1.60;;
62037;SDS011;47991;42.974;12.082;2023-05-07T04:58:37;2.90;;;1.80;;
62037;SDS011;47991;42.974;12.082;2023-05-07T05:01:05;2.60;;;1.80;;
62037;SDS011;47991;42.974;12.082;2023-05-07T05:03:46;2.80;;;1.60;;
62037;SDS011;47991;42.974;12.082;2023-05-07T05:06:27;2.80;;;1.80;;
62037;SDS011;47991;42.974;12.082;2023-05-07T05:09:08;3.30;;;1.70;;
62037;SDS011;47991;42.974;12.082;2023-05-07T05:11:36;5.00;;;1.90;;
62037;SDS011;47991;42.974;12.082;2023-05-07T05:14:17;5.60;;;2.10;;
62037;SDS011;47991;42.974;12.082;2023-05-07T05:16:44;4.50;;;1.90;;
62037;SDS011;47991;42.974;12.082;2023-05-07T05:19:10;4.50;;;2.30;;
62037;SDS011;47991;42.974;12.082;2023-05-07T05:21:38;5.50;;;2.20;;
62037;SDS011;47991;42.974;12.082;2023-05-07T05:24:05;5.40;;;2.10;;
62037;SDS011;47991;42.974;12.082;2023-05-07T05:26:46;8.30;;;2.40;;
62037;SDS011;47991;42.974;12.082;2023-05-07T05:29:13;3.80;;;2.00;;
62037;SDS011;47991;42.974;12.082;2023-05-07T05:31:59;6.60;;;2.30;;
62037;SDS011;47991;42.974;12.082;2023-05-07T05:34:39;4.30;;;2.00;;
62037;SDS011;47991;42.974;12.082;2023-05-07T05:37:06;5.80;;;2.20;;
62037;SDS011;47991;42.974;12.082;2023-05-07T05:39:47;7.10;;;2.10;;
62037;SDS011;47991;42.974;12.082;2023-05-07T05:42:14;4.40;;;2.00;;
62037;SDS011;47991;42.974;12.082;2023-05-07T05:44:41;8.20;;;2.30;;
62037;SDS011;47991;42.974;12.082;2023-05-07T05:47:22;5.90;;;2.00;;
62037;SDS011;47991;42.974;12.082;2023-05-07T05:50:04;5.60;;;2.00;;
62037;SDS011;47991;42.974;12.082;2023-05-07T05:52:46;3.20;;;1.80;;
62037;SDS011;47991;42.974;12.082;2023-05-07T05:55:27;5.10;;;2.10;;
62037;SDS011;47991;42.974;12.082;2023-05-07T05:58:08;4.10;;;1.80;;
62037;SDS011;47991;42.974;12.082;2023-05-07T06:00:35;5.70;;;1.90;;
62037;SDS011;47991;42.974;12.082;2023-05-07T06:03:17;4.60;;;2.00;;
62037;SDS011;47991;42.974;12.082;2023-05-07T06:05:48;5.00;;;2.10;;
62037;SDS011;47991;42.974;12.082;2023-05-07T06:08:29;6.60;;;2.60;;
62037;SDS011;47991;42.974;12.082;2023-05-07T06:10:56;5.20;;;2.00;;
62037;SDS011;47991;42.974;12.082;2023-05-07T06:13:43;4.20;;;1.90;;
62037;SDS011;47991;42.974;12.082;2023-05-07T06:16:24;4.00;;;1.90;;
62037;SDS011;47991;42.974;12.082;2023-05-07T06:19:05;3.70;;;1.90;;
62037;SDS011;47991;42.974;12.082;2023-05-07T06:21:45;6.80;;;2.20;;
62037;SDS011;47991;42.974;12.082;2023-05-07T06:24:12;4.10;;;2.20;;
62037;SDS011;47991;42.974;12.082;2023-05-07T06:26:39;6.60;;;2.10;;
62037;SDS011;47991;42.974;12.082;2023-05-07T06:29:21;6.50;;;2.10;;
62037;SDS011;47991;42.974;12.082;2023-05-07T06:32:08;7.20;;;1.80;;
62037;SDS011;47991;42.974;12.082;2023-05-07T06:34:37;7.30;;;2.10;;
62037;SDS011;47991;42.974;12.082;2023-05-07T06:37:20;5.20;;;2.20;;
62037;SDS011;47991;42.974;12.082;2023-05-07T06:40:01;5.70;;;1.80;;
62037;SDS011;47991;42.974;12.082;2023-05-07T06:42:35;6.70;;;2.50;;
62037;SDS011;47991;42.974;12.082;2023-05-07T06:45:19;9.80;;;5.00;;
62037;SDS011;47991;42.974;12.082;2023-05-07T06:47:47;13.80;;;5.80;;
62037;SDS011;47991;42.974;12.082;2023-05-07T06:50:14;11.30;;;6.20;;
62037;SDS011;47991;42.974;12.082;2023-05-07T06:52:56;11.30;;;5.40;;
62037;SDS011;47991;42.974;12.082;2023-05-07T06:55:23;9.90;;;5.10;;
62037;SDS011;47991;42.974;12.082;2023-05-07T06:57:50;9.60;;;4.40;;
62037;SDS011;47991;42.974;12.082;2023-05-07T07:00:32;11.70;;;4.70;;
62037;SDS011;47991;42.974;12.082;2023-05-07T07:03:13;10.90;;;4.40;;
62037;SDS011;47991;42.974;12.082;2023-05-07T07:05:54;11.30;;;4.30;;
62037;SDS011;47991;42.974;12.082;2023-05-07T07:08:36;7.70;;;4.00;;
62037;SDS011;47991;42.974;12.082;2023-05-07T07:11:05;8.80;;;4.40;;
62037;SDS011;47991;42.974;12.082;2023-05-07T07:13:46;7.70;;;3.80;;
62037;SDS011;47991;42.974;12.082;2023-05-07T07:16:22;8.50;;;3.60;;
62037;SDS011;47991;42.974;12.082;2023-05-07T07:19:03;9.10;;;4.10;;
62037;SDS011;47991;42.974;12.082;2023-05-07T07:21:30;18.40;;;5.30;;
62037;SDS011;47991;42.974;12.082;2023-05-07T07:24:14;12.70;;;5.00;;
62037;SDS011;47991;42.974;12.082;2023-05-07T07:26:59;12.60;;;5.00;;
62037;SDS011;47991;42.974;12.082;2023-05-07T07:29:26;14.30;;;4.90;;
62037;SDS011;47991;42.974;12.082;2023-05-07T07:31:53;11.50;;;4.40;;
62037;SDS011;47991;42.974;12.082;2023-05-07T07:34:34;11.50;;;3.80;;
62037;SDS011;47991;42.974;12.082;2023-05-07T07:37:15;8.20;;;3.20;;
62037;SDS011;47991;42.974;12.082;2023-05-07T07:39:44;5.70;;;2.90;;
62037;SDS011;47991;42.974;12.082;2023-05-07T07:42:25;4.60;;;2.60;;
62037;SDS011;47991;42.974;12.082;2023-05-07T07:44:51;4.60;;;2.30;;
62037;SDS011;47991;42.974;12.082;2023-05-07T07:47:19;5.80;;;2.40;;
62037;SDS011;47991;42.974;12.082;2023-05-07T07:49:46;3.70;;;2.20;;
62037;SDS011;47991;42.974;12.082;2023-05-07T07:52:13;5.30;;;2.30;;
62037;SDS011;47991;42.974;12.082;2023-05-07T07:54:56;4.60;;;2.20;;
62037;SDS011;47991;42.974;12.082;2023-05-07T07:57:23;4.10;;;2.30;;
62037;SDS011;47991;42.974;12.082;2023-05-07T07:59:50;4.80;;;2.40;;
62037;SDS011;47991;42.974;12.082;2023-05-07T08:02:19;5.20;;;2.10;;
62037;SDS011;47991;42.974;12.082;2023-05-07T08:04:46;4.20;;;2.30;;
62037;SDS011;47991;42.974;12.082;2023-05-07T08:07:29;3.70;;;2.10;;
62037;SDS011;47991;42.974;12.082;2023-05-07T08:10:10;3.70;;;1.90;;
62037;SDS011;47991;42.974;12.082;2023-05-07T08:12:37;4.60;;;2.10;;
62037;SDS011;47991;42.974;12.082;2023-05-07T08:15:04;3.10;;;1.90;;
62037;SDS011;47991;42.974;12.082;2023-05-07T08:17:45;4.90;;;2.10;;
62037;SDS011;47991;42.974;12.082;2023-05-07T08:20:26;3.40;;;1.90;;
62037;SDS011;47991;42.974;12.082;2023-05-07T08:22:52;3.70;;;2.20;;
62037;SDS011;47991;42.974;12.082;2023-05-07T08:25:33;3.80;;;1.80;;
62037;SDS011;47991;42.974;12.082;2023-05-07T08:28:01;6.80;;;2.10;;
62037;SDS011;47991;42.974;12.082;2023-05-07T08:30:28;7.90;;;2.40;;
62037;SDS011;47991;42.974;12.082;2023-05-07T08:33:10;4.10;;;2.10;;
62037;SDS011;47991;42.974;12.082;2023-05-07T08:35:37;2.70;;;1.90;;
62037;SDS011;47991;42.974;12.082;2023-05-07T08:38:05;4.50;;;1.70;;
62037;SDS011;47991;42.974;12.082;2023-05-07T08:40:46;2.80;;;1.80;;
62037;SDS011;47991;42.974;12.082;2023-05-07T08:43:27;3.00;;;1.60;;
62037;SDS011;47991;42.974;12.082;2023-05-07T08:46:08;2.90;;;1.60;;
62037;SDS011;47991;42.974;12.082;2023-05-07T08:48:51;3.10;;;1.80;;
62037;SDS011;47991;42.974;12.082;2023-05-07T08:51:38;3.20;;;1.70;;
62037;SDS011;47991;42.974;12.082;2023-05-07T08:54:20;3.10;;;1.60;;
62037;SDS011;47991;42.974;12.082;2023-05-07T08:57:01;3.30;;;1.80;;
62037;SDS011;47991;42.974;12.082;2023-05-07T08:59:28;4.30;;;1.90;;
62037;SDS011;47991;42.974;12.082;2023-05-07T09:01:57;3.00;;;1.80;;
62037;SDS011;47991;42.974;12.082;2023-05-07T09:04:24;4.60;;;2.10;;
62037;SDS011;47991;42.974;12.082;2023-05-07T09:07:05;3.30;;;1.90;;
62037;SDS011;47991;42.974;12.082;2023-05-07T09:09:32;2.90;;;1.90;;
62037;SDS011;47991;42.974;12.082;2023-05-07T09:12:00;5.20;;;1.70;;
62037;SDS011;47991;42.974;12.082;2023-05-07T09:14:42;2.90;;;1.70;;
62037;SDS011;47991;42.974;12.082;2023-05-07T09:17:23;6.00;;;1.90;;
62037;SDS011;47991;42.974;12.082;2023-05-07T09:20:03;2.90;;;1.80;;
62037;SDS011;47991;42.974;12.082;2023-05-07T09:22:45;3.50;;;1.90;;
62037;SDS011;47991;42.974;12.082;2023-05-07T09:25:29;2.70;;;1.70;;
62037;SDS011;47991;42.974;12.082;2023-05-07T09:27:57;3.30;;;1.50;;
62037;SDS011;47991;42.974;12.082;2023-05-07T09:30:29;3.10;;;1.60;;
62037;SDS011;47991;42.974;12.082;2023-05-07T09:33:15;5.40;;;2.20;;
62037;SDS011;47991;42.974;12.082;2023-05-07T09:35:42;7.50;;;2.20;;
62037;SDS011;47991;42.974;12.082;2023-05-07T09:38:23;3.00;;;1.60;;
62037;SDS011;47991;42.974;12.082;2023-05-07T09:41:09;4.10;;;1.70;;
62037;SDS011;47991;42.974;12.082;2023-05-07T09:43:39;3.70;;;1.90;;
62037;SDS011;47991;42.974;12.082;2023-05-07T09:46:24;3.40;;;1.80;;
62037;SDS011;47991;42.974;12.082;2023-05-07T09:48:54;5.40;;;1.80;;
62037;SDS011;47991;42.974;12.082;2023-05-07T09:54:04;4.10;;;1.70;;
62037;SDS011;47991;42.974;12.082;2023-05-07T09:56:45;4.10;;;1.90;;
62037;SDS011;47991;42.974;12.082;2023-05-07T09:59:28;2.70;;;1.60;;
62037;SDS011;47991;42.974;12.082;2023-05-07T10:02:28;5.80;;;2.10;;
62037;SDS011;47991;42.974;12.082;2023-05-07T10:05:12;4.70;;;2.00;;
62037;SDS011;47991;42.974;12.082;2023-05-07T10:07:40;3.10;;;1.90;;
62037;SDS011;47991;42.974;12.082;2023-05-07T10:10:21;3.80;;;2.30;;
62037;SDS011;47991;42.974;12.082;2023-05-07T10:12:49;5.10;;;2.00;;
62037;SDS011;47991;42.974;12.082;2023-05-07T10:15:17;3.00;;;1.90;;
62037;SDS011;47991;42.974;12.082;2023-05-07T10:17:45;3.00;;;1.80;;
62037;SDS011;47991;42.974;12.082;2023-05-07T10:20:26;3.60;;;1.70;;
62037;SDS011;47991;42.974;12.082;2023-05-07T10:23:07;2.50;;;1.70;;
62037;SDS011;47991;42.974;12.082;2023-05-07T10:25:43;3.50;;;1.80;;
62037;SDS011;47991;42.974;12.082;2023-05-07T10:28:11;2.80;;;1.90;;
62037;SDS011;47991;42.974;12.082;2023-05-07T10:33:41;3.90;;;2.10;;
62037;SDS011;47991;42.974;12.082;2023-05-07T10:36:25;4.40;;;1.90;;
62037;SDS011;47991;42.974;12.082;2023-05-07T10:38:54;3.90;;;1.80;;
62037;SDS011;47991;42.974;12.082;2023-05-07T10:41:35;3.60;;;1.80;;
62037;SDS011;47991;42.974;12.082;2023-05-07T10:50:49;4.20;;;1.70;;
62037;SDS011;47991;42.974;12.082;2023-05-07T10:53:47;3.00;;;1.80;;
62037;SDS011;47991;42.974;12.082;2023-05-07T10:56:28;3.60;;;2.10;;
62037;SDS011;47991;42.974;12.082;2023-05-07T10:58:55;4.60;;;2.10;;
62037;SDS011;47991;42.974;12.082;2023-05-07T11:04:23;3.80;;;1.90;;
62037;SDS011;47991;42.974;12.082;2023-05-07T11:15:11;5.20;;;2.00;;
62037;SDS011;47991;42.974;12.082;2023-05-07T11:17:58;2.70;;;1.60;;
62037;SDS011;47991;42.974;12.082;2023-05-07T11:20:56;5.70;;;2.00;;
62037;SDS011;47991;42.974;12.082;2023-05-07T11:26:04;3.70;;;1.90;;
62037;SDS011;47991;42.974;12.082;2023-05-07T11:28:46;3.50;;;1.80;;
62037;SDS011;47991;42.974;12.082;2023-05-07T11:31:13;5.40;;;2.00;;
62037;SDS011;47991;42.974;12.082;2023-05-07T11:33:43;4.10;;;1.70;;
62037;SDS011;47991;42.974;12.082;2023-05-07T11:36:11;3.70;;;1.70;;
62037;SDS011;47991;42.974;12.082;2023-05-07T11:38:40;4.70;;;1.90;;
62037;SDS011;47991;42.974;12.082;2023-05-07T11:41:07;10.50;;;3.40;;
62037;SDS011;47991;42.974;12.082;2023-05-07T11:46:42;8.90;;;2.90;;
62037;SDS011;47991;42.974;12.082;2023-05-07T11:49:10;40.20;;;9.60;;
62037;SDS011;47991;42.974;12.082;2023-05-07T11:51:51;38.20;;;11.30;;
62037;SDS011;47991;42.974;12.082;2023-05-07T11:54:18;31.70;;;10.30;;
62037;SDS011;47991;42.974;12.082;2023-05-07T11:56:59;24.70;;;7.20;;
62037;SDS011;47991;42.974;12.082;2023-05-07T11:59:40;24.30;;;8.00;;
62037;SDS011;47991;42.974;12.082;2023-05-07T12:02:22;18.20;;;6.10;;
62037;SDS011;47991;42.974;12.082;2023-05-07T12:05:05;24.50;;;9.00;;
62037;SDS011;47991;42.974;12.082;2023-05-07T12:07:33;17.00;;;5.80;;
62037;SDS011;47991;42.974;12.082;2023-05-07T12:10:17;14.30;;;5.30;;
62037;SDS011;47991;42.974;12.082;2023-05-07T12:13:00;19.80;;;6.00;;
62037;SDS011;47991;42.974;12.082;2023-05-07T12:15:26;21.10;;;5.60;;
62037;SDS011;47991;42.974;12.082;2023-05-07T12:18:07;17.80;;;5.80;;
62037;SDS011;47991;42.974;12.082;2023-05-07T12:20:49;15.90;;;5.60;;
62037;SDS011;47991;42.974;12.082;2023-05-07T12:23:35;13.80;;;5.10;;
62037;SDS011;47991;42.974;12.082;2023-05-07T12:26:17;14.20;;;4.90;;
62037;SDS011;47991;42.974;12.082;2023-05-07T12:28:45;13.10;;;4.80;;
62037;SDS011;47991;42.974;12.082;2023-05-07T12:31:13;18.10;;;5.70;;
62037;SDS011;47991;42.974;12.082;2023-05-07T12:33:41;21.60;;;8.90;;
62037;SDS011;47991;42.974;12.082;2023-05-07T12:36:22;20.30;;;10.10;;
62037;SDS011;47991;42.974;12.082;2023-05-07T12:38:49;28.70;;;16.20;;
62037;SDS011;47991;42.974;12.082;2023-05-07T12:41:30;32.80;;;18.60;;
62037;SDS011;47991;42.974;12.082;2023-05-07T12:46:42;32.00;;;19.90;;
62037;SDS011;47991;42.974;12.082;2023-05-07T12:49:23;33.80;;;23.80;;
62037;SDS011;47991;42.974;12.082;2023-05-07T12:51:51;44.10;;;29.80;;
62037;SDS011;47991;42.974;12.082;2023-05-07T12:54:34;55.60;;;37.40;;
62037;SDS011;47991;42.974;12.082;2023-05-07T12:57:06;48.70;;;31.50;;
62037;SDS011;47991;42.974;12.082;2023-05-07T12:59:40;53.40;;;36.10;;
62037;SDS011;47991;42.974;12.082;2023-05-07T13:02:31;54.80;;;37.70;;
62037;SDS011;47991;42.974;12.082;2023-05-07T13:05:17;52.00;;;37.50;;
62037;SDS011;47991;42.974;12.082;2023-05-07T13:07:58;47.90;;;36.70;;
62037;SDS011;47991;42.974;12.082;2023-05-07T13:10:39;62.50;;;50.60;;
62037;SDS011;47991;42.974;12.082;2023-05-07T13:13:07;52.00;;;42.10;;
62037;SDS011;47991;42.974;12.082;2023-05-07T13:15:47;40.80;;;29.80;;
62037;SDS011;47991;42.974;12.082;2023-05-07T13:18:32;51.30;;;38.60;;
62037;SDS011;47991;42.974;12.082;2023-05-07T13:24:00;33.00;;;25.60;;
62037;SDS011;47991;42.974;12.082;2023-05-07T13:26:29;35.00;;;27.10;;
62037;SDS011;47991;42.974;12.082;2023-05-07T13:29:12;35.50;;;25.50;;
62037;SDS011;47991;42.974;12.082;2023-05-07T13:31:40;30.10;;;21.40;;
62037;SDS011;47991;42.974;12.082;2023-05-07T13:34:10;27.50;;;19.70;;
62037;SDS011;47991;42.974;12.082;2023-05-07T13:36:37;26.10;;;19.20;;
62037;SDS011;47991;42.974;12.082;2023-05-07T13:39:21;25.40;;;18.40;;
62037;SDS011;47991;42.974;12.082;2023-05-07T13:41:53;23.90;;;17.70;;
62037;SDS011;47991;42.974;12.082;2023-05-07T13:44:20;22.50;;;16.30;;
62037;SDS011;47991;42.974;12.082;2023-05-07T13:47:02;22.50;;;15.50;;
62037;SDS011;47991;42.974;12.082;2023-05-07T13:49:29;21.40;;;15.10;;
62037;SDS011;47991;42.974;12.082;2023-05-07T13:51:56;20.50;;;14.60;;
62037;SDS011;47991;42.974;12.082;2023-05-07T13:54:24;20.20;;;14.10;;
62037;SDS011;47991;42.974;12.082;2023-05-07T13:56:53;18.30;;;12.60;;
62037;SDS011;47991;42.974;12.082;2023-05-07T13:59:33;18.60;;;12.60;;
62037;SDS011;47991;42.974;12.082;2023-05-07T14:02:00;18.10;;;11.10;;
62037;SDS011;47991;42.974;12.082;2023-05-07T14:04:27;17.90;;;11.00;;
62037;SDS011;47991;42.974;12.082;2023-05-07T14:07:07;16.90;;;10.70;;
62037;SDS011;47991;42.974;12.082;2023-05-07T14:09:49;14.90;;;9.90;;
62037;SDS011;47991;42.974;12.082;2023-05-07T14:12:16;18.00;;;9.20;;
62037;SDS011;47991;42.974;12.082;2023-05-07T14:14:42;11.80;;;8.30;;
62037;SDS011;47991;42.974;12.082;2023-05-07T14:17:09;13.80;;;7.60;;
62037;SDS011;47991;42.974;12.082;2023-05-07T14:19:36;12.70;;;7.10;;
62037;SDS011;47991;42.974;12.082;2023-05-07T14:22:02;12.50;;;7.50;;
62037;SDS011;47991;42.974;12.082;2023-05-07T14:24:43;10.90;;;6.30;;
62037;SDS011;47991;42.974;12.082;2023-05-07T14:27:10;18.30;;;7.40;;
62037;SDS011;47991;42.974;12.082;2023-05-07T14:29:37;10.50;;;6.10;;
62037;SDS011;47991;42.974;12.082;2023-05-07T14:32:04;12.50;;;6.80;;
62037;SDS011;47991;42.974;12.082;2023-05-07T14:34:45;12.20;;;5.80;;
62037;SDS011;47991;42.974;12.082;2023-05-07T14:37:32;10.70;;;5.40;;
62037;SDS011;47991;42.974;12.082;2023-05-07T14:40:12;11.70;;;5.50;;
62037;SDS011;47991;42.974;12.082;2023-05-07T14:42:41;13.50;;;5.70;;
62037;SDS011;47991;42.974;12.082;2023-05-07T14:45:21;17.20;;;10.80;;
62037;SDS011;47991;42.974;12.082;2023-05-07T14:48:02;22.00;;;12.90;;
62037;SDS011;47991;42.974;12.082;2023-05-07T14:50:29;20.50;;;13.60;;
62037;SDS011;47991;42.974;12.082;2023-05-07T14:52:56;25.60;;;14.60;;
62037;SDS011;47991;42.974;12.082;2023-05-07T14:55:38;26.50;;;17.40;;
62037;SDS011;47991;42.974;12.082;2023-05-07T14:58:25;25.20;;;18.20;;
62037;SDS011;47991;42.974;12.082;2023-05-07T15:01:06;32.60;;;23.80;;
62037;SDS011;47991;42.974;12.082;2023-05-07T15:03:47;37.40;;;22.40;;
62037;SDS011;47991;42.974;12.082;2023-05-07T15:06:14;31.50;;;23.90;;
62037;SDS011;47991;42.974;12.082;2023-05-07T15:08:42;41.40;;;32.50;;
62037;SDS011;47991;42.974;12.082;2023-05-07T15:11:23;47.20;;;34.60;;
62037;SDS011;47991;42.974;12.082;2023-05-07T15:13:51;46.60;;;35.70;;
62037;SDS011;47991;42.974;12.082;2023-05-07T15:16:31;46.40;;;33.60;;
62037;SDS011;47991;42.974;12.082;2023-05-07T15:19:13;42.90;;;35.20;;
62037;SDS011;47991;42.974;12.082;2023-05-07T15:21:57;47.40;;;34.40;;
62037;SDS011;47991;42.974;12.082;2023-05-07T15:24:43;43.20;;;32.90;;
62037;SDS011;47991;42.974;12.082;2023-05-07T15:27:24;42.60;;;33.60;;
62037;SDS011;47991;42.974;12.082;2023-05-07T15:30:05;41.30;;;32.70;;
62037;SDS011;47991;42.974;12.082;2023-05-07T15:32:36;50.80;;;34.90;;
62037;SDS011;47991;42.974;12.082;2023-05-07T15:35:04;43.00;;;32.70;;
62037;SDS011;47991;42.974;12.082;2023-05-07T15:37:31;44.80;;;30.60;;
62037;SDS011;47991;42.974;12.082;2023-05-07T15:40:12;37.00;;;29.90;;
62037;SDS011;47991;42.974;12.082;2023-05-07T15:42:54;36.70;;;27.20;;
62037;SDS011;47991;42.974;12.082;2023-05-07T15:45:39;34.80;;;26.00;;
62037;SDS011;47991;42.974;12.082;2023-05-07T15:48:21;29.20;;;23.30;;
62037;SDS011;47991;42.974;12.082;2023-05-07T15:50:54;29.00;;;22.50;;
62037;SDS011;47991;42.974;12.082;2023-05-07T15:53:22;29.00;;;21.80;;